Perle — V2GH — position and weather

sailwx.info

Track history (hours):
 
Tides and Currents Weather Stations Pressure Air Temp Water Temp Dewpoint Dewpoint Depression Visibility Wind Speed Wind Dir Waves Ship Positions

Perle

Last reported at 2017-Nov-18 16:24 UTC. Time now 2017-Nov-21 02:55 UTC.
Position N 54°06' W 006°15'.

Length 90 m; draft 5.2 m.

Type: Cargo ship. MMSI: 305882000.

Date/timePositionNaut miles runAvg speedWind from/ knotsBaromVisibWave heightAir tempDewpointWater temp
2017-Nov-18 16:24N 54°06' W 006°15'2 4.2
2017-Nov-18 16:00N 54°05' W 006°13'4 9.0
2017-Nov-18 15:30N 54°02' W 006°08'4 7.5
2017-Nov-18 15:00N 54°00' W 006°02'4 8.0
2017-Nov-18 14:30N 53°56' W 006°00'5 9.8
2017-Nov-18 14:01N 53°52' W 005°58'371 9.5
2017-Nov-16 22:44N 47°41' W 005°35'15 9.4
2017-Nov-16 21:08N 47°27' W 005°24'5 9.6
2017-Nov-16 20:34N 47°23' W 005°20'4 9.6
2017-Nov-16 20:09N 47°19' W 005°17'93 9.5
2017-Nov-16 10:25N 45°59' W 004°08'410.0
2017-Nov-16 09:59N 45°55' W 004°05'41 9.4
2017-Nov-16 05:34N 45°20' W 003°34'1 9.5
2017-Nov-16 05:28N 45°19' W 003°33'60 9.7
2017-Nov-15 23:16N 44°28' W 002°50'410.0
2017-Nov-15 22:50N 44°24' W 002°47'3 9.8
2017-Nov-15 22:30N 44°21' W 002°44'5 9.7
2017-Nov-15 22:00N 44°17' W 002°41'5 9.7
2017-Nov-15 21:30N 44°13' W 002°37'5 9.6
2017-Nov-15 21:00N 44°09' W 002°33'5 9.5
2017-Nov-15 20:31N 44°05' W 002°29'5 9.7
2017-Nov-15 20:00N 44°01' W 002°25'5 9.9
2017-Nov-15 19:30N 43°57' W 002°22'5 9.8
2017-Nov-15 19:00N 43°53' W 002°18'5 9.6
2017-Nov-15 18:30N 43°49' W 002°15'5 9.6
2017-Nov-15 18:00N 43°44' W 002°12'5 9.9
2017-Nov-15 17:30N 43°40' W 002°09'5 9.9
2017-Nov-15 17:00N 43°36' W 002°06'5 9.9
2017-Nov-15 16:31N 43°31' W 002°03'510.0
2017-Nov-15 16:01N 43°27' W 001°60'510.0
2017-Nov-15 15:30N 43°22' W 001°56'3 6.6
2017-Nov-15 15:00N 43°19' W 001°55'0 0.0
2017-Nov-15 14:30N 43°19' W 001°55'0 0.0
2017-Nov-15 14:00N 43°19' W 001°55'0 0.0
2017-Nov-15 13:24N 43°19' W 001°55'0 0.0
2017-Nov-15 12:54N 43°19' W 001°55'0 0.0
2017-Nov-15 12:24N 43°19' W 001°55'0 0.0
2017-Nov-15 11:54N 43°19' W 001°55'0 0.0
2017-Nov-15 11:30N 43°19' W 001°55'0 0.0
2017-Nov-15 11:00N 43°19' W 001°55'0 0.0
2017-Nov-15 10:30N 43°19' W 001°55'0 0.0
2017-Nov-15 10:00N 43°19' W 001°55'0 0.0
2017-Nov-15 09:15N 43°19' W 001°55'0 0.0
2017-Nov-15 09:00N 43°19' W 001°55'0 0.0
2017-Nov-15 08:30N 43°19' W 001°55'0 0.0
2017-Nov-15 08:00N 43°19' W 001°55'0 0.0
2017-Nov-15 07:27N 43°19' W 001°55'0 0.0
2017-Nov-15 07:00N 43°19' W 001°55'0 0.0
2017-Nov-15 06:30N 43°19' W 001°55'0 0.0
2017-Nov-15 05:54N 43°19' W 001°55'0 0.0
2017-Nov-15 05:30N 43°19' W 001°55'0 0.0
2017-Nov-15 04:54N 43°19' W 001°55'0 0.0
2017-Nov-15 04:30N 43°19' W 001°55'0 0.0
2017-Nov-15 04:00N 43°19' W 001°55'0 0.0
2017-Nov-15 03:30N 43°19' W 001°55'0 0.0
2017-Nov-15 02:54N 43°19' W 001°55'0 0.0
2017-Nov-15 02:30N 43°19' W 001°55'0 0.0
2017-Nov-15 02:00N 43°19' W 001°55'0 0.0
2017-Nov-15 01:30N 43°19' W 001°55'0 0.0
2017-Nov-15 00:57N 43°19' W 001°55'0 0.0
2017-Nov-15 00:18N 43°19' W 001°55'0 0.0
2017-Nov-15 00:00N 43°19' W 001°55'0 0.0
2017-Nov-14 23:30N 43°19' W 001°55'0 0.0
2017-Nov-14 23:00N 43°19' W 001°55'0 0.0
2017-Nov-14 22:24N 43°19' W 001°55'0 0.0
2017-Nov-14 21:42N 43°19' W 001°55'0 0.0
2017-Nov-14 21:18N 43°19' W 001°55'0 0.0
2017-Nov-14 20:27N 43°19' W 001°55'0 0.0
2017-Nov-14 20:00N 43°19' W 001°55'0 0.0
2017-Nov-14 19:30N 43°19' W 001°55'0 0.0
2017-Nov-14 18:18N 43°19' W 001°55'0 0.0
2017-Nov-14 17:36N 43°19' W 001°55'0 0.1
2017-Nov-14 17:30N 43°19' W 001°55'0 0.0
2017-Nov-14 17:00N 43°19' W 001°55'0 0.0
2017-Nov-14 16:30N 43°19' W 001°55'0 0.0
2017-Nov-14 16:00N 43°19' W 001°55'0 0.0
2017-Nov-14 15:30N 43°19' W 001°55'0 0.0
2017-Nov-14 15:00N 43°19' W 001°55'0 0.0
2017-Nov-14 14:18N 43°19' W 001°55'0 0.0
2017-Nov-14 14:00N 43°19' W 001°55'0 0.0
2017-Nov-14 13:30N 43°19' W 001°55'0 0.0
2017-Nov-14 13:00N 43°19' W 001°55'0 0.0
2017-Nov-14 12:18N 43°19' W 001°55'0 0.0
2017-Nov-14 12:00N 43°19' W 001°55'0 0.0
2017-Nov-14 11:28N 43°19' W 001°55'0 0.0
2017-Nov-14 10:40N 43°19' W 001°55'0 0.0
2017-Nov-14 10:28N 43°19' W 001°55'0 0.0
2017-Nov-14 09:58N 43°19' W 001°55'0 0.0
2017-Nov-14 09:28N 43°19' W 001°55'0 0.0
2017-Nov-14 08:52N 43°19' W 001°55'0 0.0
2017-Nov-14 08:28N 43°19' W 001°55'0 0.0
2017-Nov-14 07:58N 43°19' W 001°55'0 0.0
2017-Nov-14 07:28N 43°19' W 001°55'0 0.0
2017-Nov-14 06:58N 43°19' W 001°55'0 0.0
2017-Nov-14 06:28N 43°19' W 001°55'0 0.0
2017-Nov-14 05:58N 43°19' W 001°55'0 0.0
2017-Nov-14 05:28N 43°19' W 001°55'0 0.0
2017-Nov-14 04:58N 43°19' W 001°55'0 0.0
2017-Nov-14 04:28N 43°19' W 001°55'0 0.0
2017-Nov-14 03:58N 43°19' W 001°55'0 0.0
2017-Nov-14 03:28N 43°19' W 001°55'0 0.0
2017-Nov-14 02:58N 43°19' W 001°55'0 0.0
2017-Nov-14 02:28N 43°19' W 001°55'0 0.0
2017-Nov-14 01:58N 43°19' W 001°55'0 0.0
2017-Nov-14 01:28N 43°19' W 001°55'0 0.0
2017-Nov-14 00:58N 43°19' W 001°55'0 0.0
2017-Nov-14 00:22N 43°19' W 001°55'0 0.0
2017-Nov-13 23:58N 43°19' W 001°55'0 0.0
2017-Nov-13 23:28N 43°19' W 001°55'0 0.0
2017-Nov-13 22:58N 43°19' W 001°55'0 0.0
2017-Nov-13 22:28N 43°19' W 001°55'0 0.0
2017-Nov-13 21:58N 43°19' W 001°55'1 0.0
2017-Nov-13 02:00N 43°19' W 001°54'0 0.0
2017-Nov-13 01:30N 43°19' W 001°54'0 0.0
2017-Nov-13 01:00N 43°19' W 001°54'0 0.0
2017-Nov-13 00:30N 43°19' W 001°54'0 0.0
2017-Nov-12 23:57N 43°19' W 001°54'0 0.0
2017-Nov-12 23:24N 43°19' W 001°54'0 0.0
2017-Nov-12 23:00N 43°19' W 001°54'0 0.0
2017-Nov-12 22:30N 43°19' W 001°54'0 0.0
2017-Nov-12 21:57N 43°19' W 001°54'0 0.0
2017-Nov-12 21:30N 43°19' W 001°54'0 0.0
2017-Nov-12 20:57N 43°19' W 001°54'0 0.0
2017-Nov-12 20:30N 43°19' W 001°54'0 0.0
2017-Nov-12 19:57N 43°19' W 001°54'0 0.0
2017-Nov-12 19:30N 43°19' W 001°54'0 0.0
2017-Nov-12 19:00N 43°19' W 001°54'0 0.0
2017-Nov-12 18:30N 43°19' W 001°54'0 0.0
2017-Nov-12 18:00N 43°19' W 001°54'0 0.0
2017-Nov-12 17:30N 43°19' W 001°54'0 0.0
2017-Nov-12 16:57N 43°19' W 001°54'0 0.0
2017-Nov-12 16:30N 43°19' W 001°54'0 0.0
2017-Nov-12 16:00N 43°19' W 001°54'0 0.0
2017-Nov-12 15:30N 43°19' W 001°54'0 0.0
2017-Nov-12 15:00N 43°19' W 001°54'0 0.0
2017-Nov-12 14:30N 43°19' W 001°54'0 0.0
2017-Nov-12 14:00N 43°19' W 001°54'0 0.0
2017-Nov-12 12:36N 43°19' W 001°54'0 0.0
2017-Nov-12 12:30N 43°19' W 001°54'0 0.0
2017-Nov-12 12:00N 43°19' W 001°54'0 0.0
2017-Nov-12 11:30N 43°19' W 001°54'0 0.0
2017-Nov-12 10:57N 43°19' W 001°54'0 0.0
2017-Nov-12 10:27N 43°19' W 001°54'0 0.0
2017-Nov-12 09:57N 43°19' W 001°54'0 0.0
2017-Nov-12 09:30N 43°19' W 001°54'0 0.0
2017-Nov-12 08:57N 43°19' W 001°54'0 0.0
2017-Nov-12 08:30N 43°19' W 001°54'0 0.0
2017-Nov-12 08:00N 43°19' W 001°54'0 0.0
2017-Nov-12 07:24N 43°19' W 001°54'0 0.0
2017-Nov-12 07:00N 43°19' W 001°54'0 0.0
2017-Nov-12 06:30N 43°19' W 001°54'0 0.0
2017-Nov-12 05:57N 43°19' W 001°54'0 0.0
2017-Nov-12 05:30N 43°19' W 001°54'0 0.0
2017-Nov-12 05:00N 43°19' W 001°54'0 0.0
2017-Nov-12 04:30N 43°19' W 001°54'0 0.0
2017-Nov-12 04:00N 43°19' W 001°54'0 0.0
2017-Nov-12 03:30N 43°19' W 001°54'0 0.0
2017-Nov-12 03:00N 43°19' W 001°54'0 0.0
2017-Nov-12 02:30N 43°19' W 001°54'0 0.0
2017-Nov-12 02:00N 43°19' W 001°54'0 0.0
2017-Nov-12 01:30N 43°19' W 001°54'0 0.0
2017-Nov-12 01:00N 43°19' W 001°54'0 0.0
2017-Nov-12 00:30N 43°19' W 001°54'0 0.0
2017-Nov-11 23:57N 43°19' W 001°54'0 0.0
2017-Nov-11 23:30N 43°19' W 001°54'0 0.0
2017-Nov-11 23:00N 43°19' W 001°54'0 0.0
2017-Nov-11 22:30N 43°19' W 001°54'0 0.0
2017-Nov-11 22:00N 43°19' W 001°54'0 0.0
2017-Nov-11 21:30N 43°19' W 001°54'0 0.0
2017-Nov-11 20:54N 43°19' W 001°54'0 0.0
2017-Nov-11 20:30N 43°19' W 001°54'0 0.0
2017-Nov-11 20:00N 43°19' W 001°54'0 0.0
2017-Nov-11 19:30N 43°19' W 001°54'0 0.0
2017-Nov-11 19:00N 43°19' W 001°54'0 0.0
2017-Nov-11 18:30N 43°19' W 001°54'0 0.0
2017-Nov-11 17:54N 43°19' W 001°54'0 0.0
2017-Nov-11 17:18N 43°19' W 001°54'0 0.0
2017-Nov-11 17:00N 43°19' W 001°54'0 0.0
2017-Nov-11 16:24N 43°19' W 001°54'0 0.0
2017-Nov-11 16:00N 43°19' W 001°54'0 0.2
2017-Nov-11 15:30N 43°19' W 001°54'2 3.4
2017-Nov-11 15:01N 43°21' W 001°56'2 3.6
2017-Nov-11 14:30N 43°22' W 001°54'0 0.9
2017-Nov-11 14:00N 43°22' W 001°54'0 0.0
2017-Nov-11 13:30N 43°22' W 001°54'0 0.0
2017-Nov-11 12:57N 43°22' W 001°54'0 0.0
2017-Nov-11 12:30N 43°22' W 001°54'0 0.2
2017-Nov-11 12:01N 43°22' W 001°54'0 0.5
2017-Nov-11 11:28N 43°22' W 001°53'0 0.0
2017-Nov-11 10:58N 43°22' W 001°53'0 0.0
2017-Nov-11 10:28N 43°22' W 001°53'0 0.1
2017-Nov-11 10:01N 43°22' W 001°53'1 1.9
2017-Nov-11 09:31N 43°22' W 001°55'4 7.0
2017-Nov-11 09:01N 43°25' W 001°58'5 9.8
2017-Nov-11 08:31N 43°29' W 002°01'510.1
2017-Nov-11 08:00N 43°33' W 002°05'510.1
2017-Nov-11 07:31N 43°38' W 002°08'510.4
2017-Nov-11 07:01N 43°42' W 002°12'510.0
2017-Nov-11 06:31N 43°47' W 002°15'510.0
2017-Nov-11 06:01N 43°51' W 002°18'5 9.8
2017-Nov-11 05:31N 43°55' W 002°21'5 9.9
2017-Nov-11 05:01N 43°60' W 002°25'5 9.9
2017-Nov-11 04:31N 44°04' W 002°28'5 9.8
2017-Nov-11 04:01N 44°08' W 002°31'5 9.8
2017-Nov-11 03:31N 44°13' W 002°34'5 9.9
2017-Nov-11 03:00N 44°17' W 002°38'510.0
2017-Nov-11 02:30N 44°22' W 002°41'7 9.9
2017-Nov-11 01:47N 44°28' W 002°46'195 9.9
2017-Nov-10 06:03N 47°20' W 004°56'1 9.4
2017-Nov-10 05:55N 47°21' W 004°57'5 9.5
2017-Nov-10 05:22N 47°26' W 005°01'10 9.5
2017-Nov-10 04:17N 47°35' W 005°08'3 9.5
2017-Nov-10 04:00N 47°37' W 005°10'5 9.4
2017-Nov-10 03:28N 47°42' W 005°13'9 9.6
2017-Nov-10 02:29N 47°50' W 005°20'5 9.9
2017-Nov-10 02:00N 47°54' W 005°24'510.1
2017-Nov-10 01:29N 47°59' W 005°27'510.3
2017-Nov-10 01:00N 48°03' W 005°31'610.5
2017-Nov-10 00:29N 48°08' W 005°35'510.5
2017-Nov-10 00:00N 48°12' W 005°39'610.7
2017-Nov-09 23:25N 48°18' W 005°43'510.6
2017-Nov-09 22:58N 48°22' W 005°46'610.6
2017-Nov-09 22:25N 48°27' W 005°50'132 8.7
2017-Nov-09 07:16N 49°52' W 003°16'2 9.1
2017-Nov-09 07:00N 49°54' W 003°13'5 9.5
2017-Nov-09 06:30N 49°56' W 003°06'510.2
2017-Nov-09 06:00N 49°58' W 002°59'610.9
2017-Nov-09 05:25N 50°00' W 002°50'511.3
2017-Nov-09 05:00N 50°02' W 002°43'90 8.9
2017-Nov-08 18:56N 50°33' W 000°31'511.2
2017-Nov-08 18:30N 50°35' W 000°24'611.3
2017-Nov-08 18:01N 50°37' W 000°15'510.9
2017-Nov-08 17:31N 50°40' W 000°08'611.1
2017-Nov-08 17:00N 50°43' W 000°01'5 9.4
2017-Nov-08 16:31N 50°47' E 000°03'  
Track history (hours):
 
Tides and Currents Weather Stations Pressure Air Temp Water Temp Dewpoint Dewpoint Depression Visibility Wind Speed Wind Dir Waves Ship Positions

Perle

Last reported at 2017-Nov-18 16:24 UTC. Time now 2017-Nov-21 02:55 UTC.
Position N 54°06' W 006°15'.

Length 90 m; draft 5.2 m.

Type: Cargo ship. MMSI: 305882000.

Date/timePositionNaut miles runAvg speedWind from/ knotsBaromVisibWave heightAir tempDewpointWater temp
2017-Nov-18 16:24N 54°06' W 006°15'2 4.2
2017-Nov-18 16:00N 54°05' W 006°13'4 9.0
2017-Nov-18 15:30N 54°02' W 006°08'4 7.5
2017-Nov-18 15:00N 54°00' W 006°02'4 8.0
2017-Nov-18 14:30N 53°56' W 006°00'5 9.8
2017-Nov-18 14:01N 53°52' W 005°58'371 9.5
2017-Nov-16 22:44N 47°41' W 005°35'15 9.4
2017-Nov-16 21:08N 47°27' W 005°24'5 9.6
2017-Nov-16 20:34N 47°23' W 005°20'4 9.6
2017-Nov-16 20:09N 47°19' W 005°17'93 9.5
2017-Nov-16 10:25N 45°59' W 004°08'410.0
2017-Nov-16 09:59N 45°55' W 004°05'41 9.4
2017-Nov-16 05:34N 45°20' W 003°34'1 9.5
2017-Nov-16 05:28N 45°19' W 003°33'60 9.7
2017-Nov-15 23:16N 44°28' W 002°50'410.0
2017-Nov-15 22:50N 44°24' W 002°47'3 9.8
2017-Nov-15 22:30N 44°21' W 002°44'5 9.7
2017-Nov-15 22:00N 44°17' W 002°41'5 9.7
2017-Nov-15 21:30N 44°13' W 002°37'5 9.6
2017-Nov-15 21:00N 44°09' W 002°33'5 9.5
2017-Nov-15 20:31N 44°05' W 002°29'5 9.7
2017-Nov-15 20:00N 44°01' W 002°25'5 9.9
2017-Nov-15 19:30N 43°57' W 002°22'5 9.8
2017-Nov-15 19:00N 43°53' W 002°18'5 9.6
2017-Nov-15 18:30N 43°49' W 002°15'5 9.6
2017-Nov-15 18:00N 43°44' W 002°12'5 9.9
2017-Nov-15 17:30N 43°40' W 002°09'5 9.9
2017-Nov-15 17:00N 43°36' W 002°06'5 9.9
2017-Nov-15 16:31N 43°31' W 002°03'510.0
2017-Nov-15 16:01N 43°27' W 001°60'510.0
2017-Nov-15 15:30N 43°22' W 001°56'3 6.6
2017-Nov-15 15:00N 43°19' W 001°55'0 0.0
2017-Nov-15 14:30N 43°19' W 001°55'0 0.0
2017-Nov-15 14:00N 43°19' W 001°55'0 0.0
2017-Nov-15 13:24N 43°19' W 001°55'0 0.0
2017-Nov-15 12:54N 43°19' W 001°55'0 0.0
2017-Nov-15 12:24N 43°19' W 001°55'0 0.0
2017-Nov-15 11:54N 43°19' W 001°55'0 0.0
2017-Nov-15 11:30N 43°19' W 001°55'0 0.0
2017-Nov-15 11:00N 43°19' W 001°55'0 0.0
2017-Nov-15 10:30N 43°19' W 001°55'0 0.0
2017-Nov-15 10:00N 43°19' W 001°55'0 0.0
2017-Nov-15 09:15N 43°19' W 001°55'0 0.0
2017-Nov-15 09:00N 43°19' W 001°55'0 0.0
2017-Nov-15 08:30N 43°19' W 001°55'0 0.0
2017-Nov-15 08:00N 43°19' W 001°55'0 0.0
2017-Nov-15 07:27N 43°19' W 001°55'0 0.0
2017-Nov-15 07:00N 43°19' W 001°55'0 0.0
2017-Nov-15 06:30N 43°19' W 001°55'0 0.0
2017-Nov-15 05:54N 43°19' W 001°55'0 0.0
2017-Nov-15 05:30N 43°19' W 001°55'0 0.0
2017-Nov-15 04:54N 43°19' W 001°55'0 0.0
2017-Nov-15 04:30N 43°19' W 001°55'0 0.0
2017-Nov-15 04:00N 43°19' W 001°55'0 0.0
2017-Nov-15 03:30N 43°19' W 001°55'0 0.0
2017-Nov-15 02:54N 43°19' W 001°55'0 0.0
2017-Nov-15 02:30N 43°19' W 001°55'0 0.0
2017-Nov-15 02:00N 43°19' W 001°55'0 0.0
2017-Nov-15 01:30N 43°19' W 001°55'0 0.0
2017-Nov-15 00:57N 43°19' W 001°55'0 0.0
2017-Nov-15 00:18N 43°19' W 001°55'0 0.0
2017-Nov-15 00:00N 43°19' W 001°55'0 0.0
2017-Nov-14 23:30N 43°19' W 001°55'0 0.0
2017-Nov-14 23:00N 43°19' W 001°55'0 0.0
2017-Nov-14 22:24N 43°19' W 001°55'0 0.0
2017-Nov-14 21:42N 43°19' W 001°55'0 0.0
2017-Nov-14 21:18N 43°19' W 001°55'0 0.0
2017-Nov-14 20:27N 43°19' W 001°55'0 0.0
2017-Nov-14 20:00N 43°19' W 001°55'0 0.0
2017-Nov-14 19:30N 43°19' W 001°55'0 0.0
2017-Nov-14 18:18N 43°19' W 001°55'0 0.0
2017-Nov-14 17:36N 43°19' W 001°55'0 0.1
2017-Nov-14 17:30N 43°19' W 001°55'0 0.0
2017-Nov-14 17:00N 43°19' W 001°55'0 0.0
2017-Nov-14 16:30N 43°19' W 001°55'0 0.0
2017-Nov-14 16:00N 43°19' W 001°55'0 0.0
2017-Nov-14 15:30N 43°19' W 001°55'0 0.0
2017-Nov-14 15:00N 43°19' W 001°55'0 0.0
2017-Nov-14 14:18N 43°19' W 001°55'0 0.0
2017-Nov-14 14:00N 43°19' W 001°55'0 0.0
2017-Nov-14 13:30N 43°19' W 001°55'0 0.0
2017-Nov-14 13:00N 43°19' W 001°55'0 0.0
2017-Nov-14 12:18N 43°19' W 001°55'0 0.0
2017-Nov-14 12:00N 43°19' W 001°55'0 0.0
2017-Nov-14 11:28N 43°19' W 001°55'0 0.0
2017-Nov-14 10:40N 43°19' W 001°55'0 0.0
2017-Nov-14 10:28N 43°19' W 001°55'0 0.0
2017-Nov-14 09:58N 43°19' W 001°55'0 0.0
2017-Nov-14 09:28N 43°19' W 001°55'0 0.0
2017-Nov-14 08:52N 43°19' W 001°55'0 0.0
2017-Nov-14 08:28N 43°19' W 001°55'0 0.0
2017-Nov-14 07:58N 43°19' W 001°55'0 0.0
2017-Nov-14 07:28N 43°19' W 001°55'0 0.0
2017-Nov-14 06:58N 43°19' W 001°55'0 0.0
2017-Nov-14 06:28N 43°19' W 001°55'0 0.0
2017-Nov-14 05:58N 43°19' W 001°55'0 0.0
2017-Nov-14 05:28N 43°19' W 001°55'0 0.0
2017-Nov-14 04:58N 43°19' W 001°55'0 0.0
2017-Nov-14 04:28N 43°19' W 001°55'0 0.0
2017-Nov-14 03:58N 43°19' W 001°55'0 0.0
2017-Nov-14 03:28N 43°19' W 001°55'0 0.0
2017-Nov-14 02:58N 43°19' W 001°55'0 0.0
2017-Nov-14 02:28N 43°19' W 001°55'0 0.0
2017-Nov-14 01:58N 43°19' W 001°55'0 0.0
2017-Nov-14 01:28N 43°19' W 001°55'0 0.0
2017-Nov-14 00:58N 43°19' W 001°55'0 0.0
2017-Nov-14 00:22N 43°19' W 001°55'0 0.0
2017-Nov-13 23:58N 43°19' W 001°55'0 0.0
2017-Nov-13 23:28N 43°19' W 001°55'0 0.0
2017-Nov-13 22:58N 43°19' W 001°55'0 0.0
2017-Nov-13 22:28N 43°19' W 001°55'0 0.0
2017-Nov-13 21:58N 43°19' W 001°55'1 0.0
2017-Nov-13 02:00N 43°19' W 001°54'0 0.0
2017-Nov-13 01:30N 43°19' W 001°54'0 0.0
2017-Nov-13 01:00N 43°19' W 001°54'0 0.0
2017-Nov-13 00:30N 43°19' W 001°54'0 0.0
2017-Nov-12 23:57N 43°19' W 001°54'0 0.0
2017-Nov-12 23:24N 43°19' W 001°54'0 0.0
2017-Nov-12 23:00N 43°19' W 001°54'0 0.0
2017-Nov-12 22:30N 43°19' W 001°54'0 0.0
2017-Nov-12 21:57N 43°19' W 001°54'0 0.0
2017-Nov-12 21:30N 43°19' W 001°54'0 0.0
2017-Nov-12 20:57N 43°19' W 001°54'0 0.0
2017-Nov-12 20:30N 43°19' W 001°54'0 0.0
2017-Nov-12 19:57N 43°19' W 001°54'0 0.0
2017-Nov-12 19:30N 43°19' W 001°54'0 0.0
2017-Nov-12 19:00N 43°19' W 001°54'0 0.0
2017-Nov-12 18:30N 43°19' W 001°54'0 0.0
2017-Nov-12 18:00N 43°19' W 001°54'0 0.0
2017-Nov-12 17:30N 43°19' W 001°54'0 0.0
2017-Nov-12 16:57N 43°19' W 001°54'0 0.0
2017-Nov-12 16:30N 43°19' W 001°54'0 0.0
2017-Nov-12 16:00N 43°19' W 001°54'0 0.0
2017-Nov-12 15:30N 43°19' W 001°54'0 0.0
2017-Nov-12 15:00N 43°19' W 001°54'0 0.0
2017-Nov-12 14:30N 43°19' W 001°54'0 0.0
2017-Nov-12 14:00N 43°19' W 001°54'0 0.0
2017-Nov-12 12:36N 43°19' W 001°54'0 0.0
2017-Nov-12 12:30N 43°19' W 001°54'0 0.0
2017-Nov-12 12:00N 43°19' W 001°54'0 0.0
2017-Nov-12 11:30N 43°19' W 001°54'0 0.0
2017-Nov-12 10:57N 43°19' W 001°54'0 0.0
2017-Nov-12 10:27N 43°19' W 001°54'0 0.0
2017-Nov-12 09:57N 43°19' W 001°54'0 0.0
2017-Nov-12 09:30N 43°19' W 001°54'0 0.0
2017-Nov-12 08:57N 43°19' W 001°54'0 0.0
2017-Nov-12 08:30N 43°19' W 001°54'0 0.0
2017-Nov-12 08:00N 43°19' W 001°54'0 0.0
2017-Nov-12 07:24N 43°19' W 001°54'0 0.0
2017-Nov-12 07:00N 43°19' W 001°54'0 0.0
2017-Nov-12 06:30N 43°19' W 001°54'0 0.0
2017-Nov-12 05:57N 43°19' W 001°54'0 0.0
2017-Nov-12 05:30N 43°19' W 001°54'0 0.0
2017-Nov-12 05:00N 43°19' W 001°54'0 0.0
2017-Nov-12 04:30N 43°19' W 001°54'0 0.0
2017-Nov-12 04:00N 43°19' W 001°54'0 0.0
2017-Nov-12 03:30N 43°19' W 001°54'0 0.0
2017-Nov-12 03:00N 43°19' W 001°54'0 0.0
2017-Nov-12 02:30N 43°19' W 001°54'0 0.0
2017-Nov-12 02:00N 43°19' W 001°54'0 0.0
2017-Nov-12 01:30N 43°19' W 001°54'0 0.0
2017-Nov-12 01:00N 43°19' W 001°54'0 0.0
2017-Nov-12 00:30N 43°19' W 001°54'0 0.0
2017-Nov-11 23:57N 43°19' W 001°54'0 0.0
2017-Nov-11 23:30N 43°19' W 001°54'0 0.0
2017-Nov-11 23:00N 43°19' W 001°54'0 0.0
2017-Nov-11 22:30N 43°19' W 001°54'0 0.0
2017-Nov-11 22:00N 43°19' W 001°54'0 0.0
2017-Nov-11 21:30N 43°19' W 001°54'0 0.0
2017-Nov-11 20:54N 43°19' W 001°54'0 0.0
2017-Nov-11 20:30N 43°19' W 001°54'0 0.0
2017-Nov-11 20:00N 43°19' W 001°54'0 0.0
2017-Nov-11 19:30N 43°19' W 001°54'0 0.0
2017-Nov-11 19:00N 43°19' W 001°54'0 0.0
2017-Nov-11 18:30N 43°19' W 001°54'0 0.0
2017-Nov-11 17:54N 43°19' W 001°54'0 0.0
2017-Nov-11 17:18N 43°19' W 001°54'0 0.0
2017-Nov-11 17:00N 43°19' W 001°54'0 0.0
2017-Nov-11 16:24N 43°19' W 001°54'0 0.0
2017-Nov-11 16:00N 43°19' W 001°54'0 0.2
2017-Nov-11 15:30N 43°19' W 001°54'2 3.4
2017-Nov-11 15:01N 43°21' W 001°56'2 3.6
2017-Nov-11 14:30N 43°22' W 001°54'0 0.9
2017-Nov-11 14:00N 43°22' W 001°54'0 0.0
2017-Nov-11 13:30N 43°22' W 001°54'0 0.0
2017-Nov-11 12:57N 43°22' W 001°54'0 0.0
2017-Nov-11 12:30N 43°22' W 001°54'0 0.2
2017-Nov-11 12:01N 43°22' W 001°54'0 0.5
2017-Nov-11 11:28N 43°22' W 001°53'0 0.0
2017-Nov-11 10:58N 43°22' W 001°53'0 0.0
2017-Nov-11 10:28N 43°22' W 001°53'0 0.1
2017-Nov-11 10:01N 43°22' W 001°53'1 1.9
2017-Nov-11 09:31N 43°22' W 001°55'4 7.0
2017-Nov-11 09:01N 43°25' W 001°58'5 9.8
2017-Nov-11 08:31N 43°29' W 002°01'510.1
2017-Nov-11 08:00N 43°33' W 002°05'510.1
2017-Nov-11 07:31N 43°38' W 002°08'510.4
2017-Nov-11 07:01N 43°42' W 002°12'510.0
2017-Nov-11 06:31N 43°47' W 002°15'510.0
2017-Nov-11 06:01N 43°51' W 002°18'5 9.8
2017-Nov-11 05:31N 43°55' W 002°21'5 9.9
2017-Nov-11 05:01N 43°60' W 002°25'5 9.9
2017-Nov-11 04:31N 44°04' W 002°28'5 9.8
2017-Nov-11 04:01N 44°08' W 002°31'5 9.8
2017-Nov-11 03:31N 44°13' W 002°34'5 9.9
2017-Nov-11 03:00N 44°17' W 002°38'510.0
2017-Nov-11 02:30N 44°22' W 002°41'7 9.9
2017-Nov-11 01:47N 44°28' W 002°46'195 9.9
2017-Nov-10 06:03N 47°20' W 004°56'1 9.4
2017-Nov-10 05:55N 47°21' W 004°57'5 9.5
2017-Nov-10 05:22N 47°26' W 005°01'10 9.5
2017-Nov-10 04:17N 47°35' W 005°08'3 9.5
2017-Nov-10 04:00N 47°37' W 005°10'5 9.4
2017-Nov-10 03:28N 47°42' W 005°13'9 9.6
2017-Nov-10 02:29N 47°50' W 005°20'5 9.9
2017-Nov-10 02:00N 47°54' W 005°24'510.1
2017-Nov-10 01:29N 47°59' W 005°27'510.3
2017-Nov-10 01:00N 48°03' W 005°31'610.5
2017-Nov-10 00:29N 48°08' W 005°35'510.5
2017-Nov-10 00:00N 48°12' W 005°39'610.7
2017-Nov-09 23:25N 48°18' W 005°43'510.6
2017-Nov-09 22:58N 48°22' W 005°46'610.6
2017-Nov-09 22:25N 48°27' W 005°50'132 8.7
2017-Nov-09 07:16N 49°52' W 003°16'2 9.1
2017-Nov-09 07:00N 49°54' W 003°13'5 9.5
2017-Nov-09 06:30N 49°56' W 003°06'510.2
2017-Nov-09 06:00N 49°58' W 002°59'610.9
2017-Nov-09 05:25N 50°00' W 002°50'511.3
2017-Nov-09 05:00N 50°02' W 002°43'90 8.9
2017-Nov-08 18:56N 50°33' W 000°31'511.2
2017-Nov-08 18:30N 50°35' W 000°24'611.3
2017-Nov-08 18:01N 50°37' W 000°15'510.9
2017-Nov-08 17:31N 50°40' W 000°08'611.1
2017-Nov-08 17:00N 50°43' W 000°01'5 9.4
2017-Nov-08 16:31N 50°47' E 000°03'  

Dump ship's entire track history